Time;durP1;ratioP1;P1;durP2;ratioP2;P2;SDS_P1;SDS_P2;PMS_P1;PMS_P2;Temp;Humidity;BMP_temperature;BMP_pressure;BME280_temperature;BME280_humidity;BME280_pressure;Samples;Min_cycle;Max_cycle;Signal;HPM_P1;HPM_P2
2024/01/03 00:00:02;;;;;;;50.10;33.75;;;;;;;3.90;100.00;99142.50;4871712;29;20168;-78
2024/01/03 00:02:31;;;;;;;48.13;32.30;;;;;;;3.84;100.00;99129.88;4871554;29;20097;-78
2024/01/03 00:04:56;;;;;;;45.35;32.80;;;;;;;3.89;100.00;99118.16;4868468;29;20285;-78
2024/01/03 00:07:22;;;;;;;46.95;33.00;;;;;;;3.91;100.00;99123.28;4871588;29;20029;-78
2024/01/03 00:09:47;;;;;;;52.70;34.50;;;;;;;3.85;100.00;99118.50;4868405;29;20041;-79
2024/01/03 00:12:22;;;;;;;48.60;34.50;;;;;;;3.79;100.00;99117.16;4870921;29;20490;-80
2024/01/03 00:14:48;;;;;;;46.95;33.40;;;;;;;3.78;100.00;99125.09;4870860;29;20531;-79
2024/01/03 00:17:13;;;;;;;49.55;34.30;;;;;;;3.76;100.00;99127.00;4871639;29;20058;-79
2024/01/03 00:19:39;;;;;;;50.95;34.17;;;;;;;3.74;100.00;99115.84;4873568;29;20139;-79
2024/01/03 00:22:10;;;;;;;49.95;34.85;;;;;;;3.72;100.00;99088.06;4875220;29;20036;-80
2024/01/03 00:24:44;;;;;;;46.55;33.97;;;;;;;3.71;100.00;99096.84;4872561;29;20069;-80
2024/01/03 00:27:10;;;;;;;46.33;33.05;;;;;;;3.74;100.00;99121.06;4875030;29;20056;-81
2024/01/03 00:29:53;;;;;;;46.05;32.72;;;;;;;3.70;100.00;99121.28;4872913;29;20156;-79
2024/01/03 00:32:21;;;;;;;50.00;33.90;;;;;;;3.67;100.00;99108.44;4875609;29;20128;-79
2024/01/03 00:34:48;;;;;;;49.40;35.90;;;;;;;3.64;100.00;99111.28;4870491;29;20029;-79
2024/01/03 00:37:20;;;;;;;54.35;35.90;;;;;;;3.57;100.00;99115.28;4871628;29;20380;-80
2024/01/03 00:39:46;;;;;;;53.10;36.80;;;;;;;3.55;100.00;99098.06;4872576;29;20033;-80
2024/01/03 00:42:11;;;;;;;51.08;35.13;;;;;;;3.54;100.00;99094.63;4873368;29;20534;-80
2024/01/03 00:44:37;;;;;;;50.90;35.45;;;;;;;3.53;100.00;99087.75;4874888;29;20517;-79
2024/01/03 00:47:03;;;;;;;53.25;35.90;;;;;;;3.49;100.00;99081.06;4871982;29;20029;-79
2024/01/03 00:49:29;;;;;;;50.55;34.95;;;;;;;3.46;100.00;99073.47;4875081;29;20115;-80
2024/01/03 00:51:55;;;;;;;51.25;35.88;;;;;;;3.43;100.00;99081.50;4871577;29;20178;-79
2024/01/03 00:54:24;;;;;;;52.60;37.17;;;;;;;3.36;100.00;99085.50;4874888;29;20171;-80
2024/01/03 00:56:50;;;;;;;55.60;37.97;;;;;;;3.30;100.00;99084.16;4872313;29;20033;-81
2024/01/03 00:59:16;;;;;;;51.08;36.65;;;;;;;3.21;100.00;99070.94;4871562;29;20057;-79
2024/01/03 01:01:42;;;;;;;56.17;37.13;;;;;;;3.19;100.00;99078.03;4892615;29;20076;-78
2024/01/03 01:04:09;;;;;;;60.38;40.22;;;;;;;3.20;100.00;99069.28;4874245;29;20081;-80
2024/01/03 01:06:35;;;;;;;55.28;38.42;;;;;;;3.21;100.00;99061.34;4874120;29;20049;-81
2024/01/03 01:09:03;;;;;;;57.95;38.30;;;;;;;3.24;100.00;99052.50;4877872;29;20106;-77
2024/01/03 01:11:29;;;;;;;56.33;37.60;;;;;;;3.28;100.00;99061.75;4871160;29;20033;-80
2024/01/03 01:13:55;;;;;;;53.45;37.65;;;;;;;3.31;100.00;99069.34;4893164;29;20036;-78
2024/01/03 01:16:21;;;;;;;57.90;38.60;;;;;;;3.26;100.00;99064.47;4868228;29;20344;-78
2024/01/03 01:18:46;;;;;;;50.40;37.15;;;;;;;3.30;100.00;99059.84;4869138;29;20054;-79
2024/01/03 01:21:12;;;;;;;54.72;36.78;;;;;;;3.33;100.00;99064.03;4874497;29;20160;-79
2024/01/03 01:23:41;;;;;;;56.72;36.88;;;;;;;3.37;100.00;99061.06;4872904;29;20071;-79
2024/01/03 01:26:08;;;;;;;51.13;36.65;;;;;;;3.37;100.00;99053.25;4851770;29;20030;-79
2024/01/03 01:28:33;;;;;;;52.05;36.70;;;;;;;3.34;100.00;99050.88;4869286;29;20085;-79
2024/01/03 01:30:59;;;;;;;49.22;34.78;;;;;;;3.34;100.00;99053.50;4873276;29;20136;-79
2024/01/03 01:33:24;;;;;;;50.45;35.00;;;;;;;3.25;100.00;99051.53;4872883;29;20033;-79
2024/01/03 01:35:49;;;;;;;48.88;34.97;;;;;;;3.21;100.00;99057.91;4870128;29;20037;-79
2024/01/03 01:38:15;;;;;;;52.90;36.15;;;;;;;3.24;100.00;99055.09;4872435;29;20032;-80
2024/01/03 01:40:40;;;;;;;50.85;33.70;;;;;;;3.24;100.00;99049.88;4871785;29;20054;-80
2024/01/03 01:43:06;;;;;;;49.90;35.13;;;;;;;3.21;100.00;99052.69;4874351;29;20073;-78
2024/01/03 01:45:32;;;;;;;50.03;34.85;;;;;;;3.15;100.00;99047.91;4871083;29;20025;-78
2024/01/03 01:47:58;;;;;;;53.25;35.72;;;;;;;3.08;100.00;99044.06;4874897;29;20508;-77
2024/01/03 01:50:24;;;;;;;55.50;36.08;;;;;;;3.02;100.00;99041.88;4871674;29;20037;-78
2024/01/03 01:52:52;;;;;;;48.90;34.50;;;;;;;2.93;100.00;99060.78;4874450;29;20426;-78
2024/01/03 01:55:18;;;;;;;50.88;35.50;;;;;;;2.86;100.00;99070.81;4870801;29;20506;-79
2024/01/03 01:57:45;;;;;;;54.10;36.42;;;;;;;2.81;100.00;99058.09;4872796;29;20857;-78
2024/01/03 02:00:12;;;;;;;51.03;34.45;;;;;;;2.77;100.00;99050.56;4874727;29;20044;-79
2024/01/03 02:02:40;;;;;;;50.78;33.28;;;;;;;2.73;100.00;99055.19;4874452;29;20108;-78
2024/01/03 02:05:07;;;;;;;50.72;36.55;;;;;;;2.57;100.00;99046.75;4874276;29;20033;-80
2024/01/03 02:07:35;;;;;;;47.70;34.35;;;;;;;2.61;100.00;99056.00;4877673;29;20047;-78
2024/01/03 02:10:01;;;;;;;49.78;34.80;;;;;;;2.59;100.00;99065.72;4874576;29;20045;-76
2024/01/03 02:12:28;;;;;;;54.15;36.03;;;;;;;2.58;100.00;99061.44;4873707;29;20033;-78
2024/01/03 02:14:53;;;;;;;52.70;36.33;;;;;;;2.49;100.00;99067.28;4877260;29;20029;-78
2024/01/03 02:17:20;;;;;;;53.20;35.70;;;;;;;2.53;100.00;99068.75;4874221;29;20121;-77
2024/01/03 02:19:46;;;;;;;50.45;34.88;;;;;;;2.52;100.00;99066.25;4872610;29;20025;-78
2024/01/03 02:22:11;;;;;;;52.30;34.90;;;;;;;2.43;100.00;99078.94;4883875;29;20068;-82
2024/01/03 02:24:36;;;;;;;48.38;34.60;;;;;;;2.30;100.00;99066.84;4883879;29;20029;-79
2024/01/03 02:27:02;;;;;;;48.92;34.38;;;;;;;2.27;100.00;99061.84;4889217;29;20108;-80
2024/01/03 02:29:27;;;;;;;52.08;36.75;;;;;;;2.32;100.00;99064.97;4897139;29;20033;-80
2024/01/03 02:31:53;;;;;;;49.97;35.33;;;;;;;2.36;100.00;99050.81;4871209;29;20036;-80
2024/01/03 02:34:18;;;;;;;50.00;34.33;;;;;;;2.36;100.00;99049.03;4876205;29;20112;-81
2024/01/03 02:36:48;;;;;;;52.03;35.25;;;;;;;2.36;100.00;99056.00;4877667;29;20057;-81
2024/01/03 02:39:13;;;;;;;51.42;34.65;;;;;;;2.27;100.00;99059.25;4876266;29;20101;-81
2024/01/03 02:41:39;;;;;;;50.08;34.33;;;;;;;2.20;100.00;99044.97;4874753;29;20071;-81
2024/01/03 02:44:04;;;;;;;48.17;33.00;;;;;;;2.18;100.00;99058.06;4875881;29;20112;-82
2024/01/03 02:46:30;;;;;;;47.05;34.35;;;;;;;2.15;100.00;99062.66;4882738;29;20029;-82
2024/01/03 02:48:58;;;;;;;46.08;33.05;;;;;;;2.15;100.00;99049.66;4880764;29;20121;-82
2024/01/03 02:51:25;;;;;;;52.55;35.40;;;;;;;2.16;100.00;99059.97;4875631;29;20476;-81
2024/01/03 02:53:50;;;;;;;49.13;34.20;;;;;;;2.14;100.00;99053.19;4890249;29;20045;-82
2024/01/03 02:56:16;;;;;;;48.40;33.72;;;;;;;2.10;100.00;99056.94;4872637;29;20033;-82
2024/01/03 02:58:41;;;;;;;45.72;33.70;;;;;;;2.04;100.00;99043.41;4872016;29;20107;-81
2024/01/03 03:01:07;;;;;;;49.72;34.22;;;;;;;2.02;100.00;99039.22;4874866;29;20497;-81
2024/01/03 03:03:33;;;;;;;48.22;33.90;;;;;;;2.04;100.00;99035.59;4868406;29;20033;-81
2024/01/03 03:05:59;;;;;;;46.47;33.38;;;;;;;2.05;100.00;99032.06;4874796;29;20061;-81
2024/01/03 03:08:24;;;;;;;46.47;34.33;;;;;;;2.08;100.00;99027.56;4875925;29;20037;-80
2024/01/03 03:10:49;;;;;;;47.80;34.40;;;;;;;2.06;100.00;99025.88;4877142;29;20099;-81
2024/01/03 03:13:16;;;;;;;52.78;34.65;;;;;;;2.10;100.00;99018.72;4874535;29;20040;-82
2024/01/03 03:15:42;;;;;;;47.78;34.33;;;;;;;2.09;100.00;99026.63;4872594;29;20080;-81
2024/01/03 03:18:08;;;;;;;54.72;34.97;;;;;;;2.09;100.00;99031.84;4868938;29;20070;-81
2024/01/03 03:20:34;;;;;;;47.85;33.42;;;;;;;2.11;100.00;99035.19;4873335;29;20526;-82
2024/01/03 03:22:59;;;;;;;50.85;36.20;;;;;;;2.08;100.00;99025.78;4870711;29;20120;-81
2024/01/03 03:25:26;;;;;;;51.35;34.90;;;;;;;2.01;100.00;99024.53;4870502;29;20037;-82
2024/01/03 03:27:51;;;;;;;51.97;36.45;;;;;;;2.02;100.00;99021.84;4876527;29;20041;-82
2024/01/03 03:30:17;;;;;;;52.15;35.67;;;;;;;2.01;100.00;99020.16;4875631;29;20467;-82
2024/01/03 03:32:45;;;;;;;51.78;33.80;;;;;;;2.01;100.00;99017.56;4878424;29;20061;-81
2024/01/03 03:35:11;;;;;;;51.13;36.13;;;;;;;1.85;100.00;99014.31;4877575;29;20040;-81
2024/01/03 03:37:37;;;;;;;47.15;33.67;;;;;;;1.95;100.00;99012.75;4878118;29;20041;-82
2024/01/03 03:40:04;;;;;;;52.05;36.05;;;;;;;1.95;100.00;99010.16;4882544;29;20044;-80
2024/01/03 03:42:29;;;;;;;44.40;33.00;;;;;;;1.89;100.00;99015.78;4883294;29;20494;-81
2024/01/03 03:44:55;;;;;;;43.13;32.03;;;;;;;1.71;100.00;99016.97;4879623;29;20064;-82
2024/01/03 03:47:20;;;;;;;39.03;30.80;;;;;;;1.62;100.00;99020.19;4877638;29;20072;-80
2024/01/03 03:49:46;;;;;;;40.63;31.60;;;;;;;1.54;100.00;99014.66;4875918;29;20029;-80
2024/01/03 03:52:11;;;;;;;41.38;32.42;;;;;;;1.49;100.00;99024.50;4883869;29;20037;-79
2024/01/03 03:54:36;;;;;;;39.60;31.27;;;;;;;1.43;100.00;99030.09;4881598;29;20136;-82
2024/01/03 03:57:02;;;;;;;42.17;31.10;;;;;;;1.37;100.00;99039.13;4882435;29;20123;-81
2024/01/03 03:59:29;;;;;;;41.15;32.00;;;;;;;1.33;100.00;99036.84;4881345;29;20111;-80
2024/01/03 04:01:54;;;;;;;43.97;32.03;;;;;;;1.27;100.00;99032.03;4881169;29;20048;-81
2024/01/03 04:04:20;;;;;;;40.75;31.08;;;;;;;1.35;100.00;99029.78;4875725;29;20084;-81
2024/01/03 04:06:46;;;;;;;37.10;30.67;;;;;;;1.37;100.00;99020.94;4869559;29;20079;-81
2024/01/03 04:09:12;;;;;;;40.22;31.95;;;;;;;1.35;100.00;99014.19;4881149;29;20037;-81
2024/01/03 04:11:43;;;;;;;42.42;31.60;;;;;;;1.32;100.00;99022.16;4878054;29;20048;-81
2024/01/03 04:14:10;;;;;;;45.50;34.88;;;;;;;1.24;100.00;99018.28;4872233;29;20112;-81
2024/01/03 04:16:36;;;;;;;43.55;33.70;;;;;;;1.18;100.00;99008.28;4873422;29;20036;-80
2024/01/03 04:19:02;;;;;;;43.30;33.78;;;;;;;1.22;100.00;99019.31;4872284;29;20042;-81
2024/01/03 04:21:29;;;;;;;40.95;32.40;;;;;;;1.09;100.00;99014.06;4872432;29;20459;-80
2024/01/03 04:23:54;;;;;;;41.05;32.00;;;;;;;1.08;100.00;99011.56;4872073;29;20114;-80
2024/01/03 04:26:21;;;;;;;43.63;31.88;;;;;;;1.12;100.00;99024.25;4875659;29;20158;-81
2024/01/03 04:28:47;;;;;;;46.08;32.85;;;;;;;1.09;100.00;99026.22;4876902;29;20048;-81
2024/01/03 04:31:12;;;;;;;43.92;32.78;;;;;;;1.04;100.00;99016.13;4874850;29;20041;-81
2024/01/03 04:33:38;;;;;;;44.30;33.75;;;;;;;0.94;100.00;99015.03;4890200;29;20076;-81
2024/01/03 04:36:03;;;;;;;45.08;32.38;;;;;;;0.96;100.00;99018.34;4883536;29;20045;-82
2024/01/03 04:38:29;;;;;;;51.47;33.38;;;;;;;0.97;100.00;99025.22;4872592;29;20034;-82
2024/01/03 04:40:54;;;;;;;46.50;33.45;;;;;;;0.94;100.00;99020.22;4874578;29;20383;-82
2024/01/03 04:43:19;;;;;;;44.55;32.92;;;;;;;0.95;100.00;99021.88;4873282;29;20037;-81
2024/01/03 04:45:47;;;;;;;45.83;33.88;;;;;;;0.78;100.00;99014.31;4873660;29;20036;-83
2024/01/03 04:48:12;;;;;;;39.03;31.90;;;;;;;0.63;100.00;99028.25;4873937;29;20527;-83
2024/01/03 04:50:38;;;;;;;44.58;33.75;;;;;;;0.60;100.00;99036.19;4876948;29;20143;-83
2024/01/03 04:53:03;;;;;;;47.60;34.78;;;;;;;0.60;100.00;99034.44;4871879;29;20056;-83
2024/01/03 04:55:29;;;;;;;49.72;35.38;;;;;;;0.61;100.00;99027.47;4874466;29;20049;-83
2024/01/03 04:57:55;;;;;;;43.92;34.50;;;;;;;0.53;100.00;99020.16;4872720;29;20037;-81
2024/01/03 05:00:21;;;;;;;43.53;33.10;;;;;;;0.61;100.00;99017.94;4872948;29;20120;-81
2024/01/03 05:02:46;;;;;;;48.65;34.08;;;;;;;0.32;100.00;99027.47;4874987;29;20040;-82
2024/01/03 05:05:12;;;;;;;47.28;33.83;;;;;;;0.40;100.00;99030.47;4872955;29;20030;-82
2024/01/03 05:07:38;;;;;;;40.63;32.05;;;;;;;0.46;100.00;99028.44;4874082;29;20494;-81
2024/01/03 05:10:08;;;;;;;49.60;32.50;;;;;;;0.53;100.00;99027.13;4871789;29;20072;-81
2024/01/03 05:12:34;;;;;;;47.45;32.60;;;;;;;0.41;100.00;99032.13;4871132;29;20120;-81
2024/01/03 05:14:59;;;;;;;42.35;32.03;;;;;;;0.39;100.00;99028.78;4871243;29;20061;-80
2024/01/03 05:17:26;;;;;;;46.88;33.88;;;;;;;0.36;100.00;99031.56;4869147;29;20081;-81
2024/01/03 05:19:51;;;;;;;42.35;32.13;;;;;;;0.34;100.00;99038.63;4870612;29;20033;-82
2024/01/03 05:22:17;;;;;;;41.28;32.13;;;;;;;0.37;100.00;99041.03;4873077;29;20032;-82
2024/01/03 05:24:42;;;;;;;43.85;33.47;;;;;;;0.34;100.00;99030.84;4870331;29;20029;-82
2024/01/03 05:27:07;;;;;;;44.33;33.05;;;;;;;0.43;100.00;99038.97;4873801;29;20470;-82
2024/01/03 05:29:33;;;;;;;42.75;32.50;;;;;;;0.46;100.00;99039.66;4871118;29;20033;-82
2024/01/03 05:31:59;;;;;;;42.72;32.10;;;;;;;0.46;100.00;99038.81;4871423;29;20044;-82
2024/01/03 05:34:24;;;;;;;42.05;32.92;;;;;;;0.41;100.00;99046.88;4873759;29;20021;-82
2024/01/03 05:36:49;;;;;;;41.80;32.80;;;;;;;0.47;100.00;99043.91;4872593;29;20344;-83
2024/01/03 05:39:15;;;;;;;44.53;32.03;;;;;;;0.54;100.00;99052.13;4872656;29;20037;-81
2024/01/03 05:41:40;;;;;;;43.58;31.70;;;;;;;0.56;100.00;99052.91;4876709;29;20398;-81
2024/01/03 05:44:06;;;;;;;45.45;34.03;;;;;;;0.60;100.00;99067.34;4872071;29;20108;-81
2024/01/03 05:46:31;;;;;;;41.33;31.08;;;;;;;0.61;100.00;99069.88;4871220;29;20092;-81
2024/01/03 05:48:59;;;;;;;42.42;31.85;;;;;;;0.67;100.00;99079.03;4874877;29;20041;-80
2024/01/03 05:51:25;;;;;;;44.80;32.10;;;;;;;0.70;100.00;99068.50;4871877;29;20137;-81
2024/01/03 05:53:50;;;;;;;45.40;31.38;;;;;;;0.69;100.00;99069.41;4873805;29;20037;-81
2024/01/03 05:56:16;;;;;;;43.38;32.60;;;;;;;0.65;100.00;99080.91;4873153;29;20517;-82
2024/01/03 05:58:43;;;;;;;43.25;32.47;;;;;;;0.65;100.00;99071.34;4878549;29;20045;-82
2024/01/03 06:01:11;;;;;;;43.05;32.30;;;;;;;0.62;100.00;99065.50;4874886;29;20488;-81
2024/01/03 06:03:36;;;;;;;46.30;32.28;;;;;;;0.60;100.00;99067.34;4867097;29;20045;-81
2024/01/03 06:06:02;;;;;;;43.10;31.75;;;;;;;0.58;100.00;99053.66;4866738;29;20555;-82
2024/01/03 06:08:28;;;;;;;41.22;31.23;;;;;;;0.61;100.00;99063.84;4871331;29;20131;-81
2024/01/03 06:10:54;;;;;;;45.40;33.70;;;;;;;0.64;100.00;99061.06;4871910;29;20104;-80
2024/01/03 06:13:21;;;;;;;45.40;33.28;;;;;;;0.60;100.00;99068.19;4873841;29;20029;-80
2024/01/03 06:15:47;;;;;;;43.58;31.80;;;;;;;0.55;100.00;99069.41;4870044;29;20406;-84
2024/01/03 06:18:13;;;;;;;42.33;32.42;;;;;;;0.53;100.00;99066.06;4871273;29;20037;-83
2024/01/03 06:20:39;;;;;;;38.30;30.27;;;;;;;0.17;100.00;99059.53;4873485;29;20040;-81
2024/01/03 06:23:04;;;;;;;38.10;29.20;;;;;;;0.21;100.00;99066.22;4201009;29;10000891;-82
2024/01/03 06:25:31;;;;;;;33.13;27.27;;;;;;;0.33;100.00;99065.50;4868500;29;20436;-83
2024/01/03 06:27:57;;;;;;;33.40;28.20;;;;;;;0.34;100.00;99072.34;4875576;29;20414;-83
2024/01/03 06:30:22;;;;;;;37.97;28.52;;;;;;;0.37;100.00;99061.78;4887973;29;20045;-83
2024/01/03 06:32:48;;;;;;;35.17;29.48;;;;;;;0.39;100.00;99067.72;4883549;29;20030;-81
2024/01/03 06:35:13;;;;;;;35.35;29.42;;;;;;;0.46;100.00;99064.78;4900567;29;20045;-86
2024/01/03 06:37:40;;;;;;;34.95;29.63;;;;;;;0.46;100.00;99070.78;4894503;29;20079;-83
2024/01/03 06:40:06;;;;;;;32.95;29.35;;;;;;;0.58;100.00;99069.22;4884089;29;20360;-83
2024/01/03 06:42:33;;;;;;;37.63;30.25;;;;;;;0.67;100.00;99068.66;4885873;29;20029;-82
2024/01/03 06:44:59;;;;;;;37.75;29.40;;;;;;;0.71;100.00;99070.13;4876917;29;20115;-83
2024/01/03 06:47:24;;;;;;;38.95;30.08;;;;;;;0.69;100.00;99067.66;4865987;29;20033;-81
2024/01/03 06:49:49;;;;;;;47.13;32.88;;;;;;;0.69;100.00;99065.06;4535136;29;10000098;-79
2024/01/03 06:52:15;;;;;;;41.28;32.42;;;;;;;0.53;100.00;99072.06;4873298;29;20414;-80
2024/01/03 06:54:40;;;;;;;44.50;32.10;;;;;;;0.63;100.00;99075.81;4868807;29;20034;-80
2024/01/03 06:57:06;;;;;;;45.05;31.30;;;;;;;0.52;100.00;99072.19;4872127;29;20037;-80
2024/01/03 06:59:36;;;;;;;43.28;31.25;;;;;;;0.39;100.00;99072.91;4870199;29;20033;-81
2024/01/03 07:02:01;;;;;;;42.83;31.52;;;;;;;0.33;100.00;99081.06;4869217;29;20037;-78
2024/01/03 07:04:28;;;;;;;42.78;31.05;;;;;;;0.23;100.00;99087.72;4866903;29;20089;-84
2024/01/03 07:06:53;;;;;;;38.22;31.42;;;;;;;0.07;100.00;99079.13;4875379;29;20045;-83
2024/01/03 07:09:19;;;;;;;39.63;31.17;;;;;;;-0.01;100.00;99074.41;4870135;29;20383;-81
2024/01/03 07:11:44;;;;;;;41.67;31.92;;;;;;;0.02;100.00;99070.78;4888634;29;20576;-83
2024/01/03 07:14:12;;;;;;;42.20;32.03;;;;;;;0.03;100.00;99061.25;4873661;29;20039;-83
2024/01/03 07:16:38;;;;;;;42.55;32.90;;;;;;;0.05;100.00;99073.22;4871402;29;20065;-84
2024/01/03 07:19:04;;;;;;;44.67;32.72;;;;;;;0.08;100.00;99067.84;4868558;29;20037;-80
2024/01/03 07:21:30;;;;;;;44.92;33.72;;;;;;;0.13;100.00;99068.41;4874507;29;20041;-79
2024/01/03 07:23:56;;;;;;;43.55;33.05;;;;;;;0.17;100.00;99064.72;4868588;29;20173;-80
2024/01/03 07:26:21;;;;;;;46.13;33.65;;;;;;;0.22;100.00;99057.50;4870729;29;20025;-79
2024/01/03 07:28:47;;;;;;;42.45;32.72;;;;;;;0.26;100.00;99061.59;4870566;29;20119;-78
2024/01/03 07:31:12;;;;;;;43.22;32.92;;;;;;;0.24;100.00;99065.19;4871123;29;20052;-78
2024/01/03 07:33:40;;;;;;;44.60;32.17;;;;;;;0.29;100.00;99064.00;4858527;29;20124;-80
2024/01/03 07:36:06;;;;;;;42.33;32.60;;;;;;;0.42;100.00;99058.91;4868941;29;20041;-81
2024/01/03 07:38:31;;;;;;;41.63;32.22;;;;;;;0.48;100.00;99062.91;4867895;29;20081;-79
2024/01/03 07:40:57;;;;;;;38.05;31.35;;;;;;;0.60;100.00;99063.00;4876740;29;20529;-80
2024/01/03 07:43:23;;;;;;;36.28;30.13;;;;;;;0.45;100.00;99073.47;4873135;29;20152;-80
2024/01/03 07:45:48;;;;;;;36.35;28.95;;;;;;;0.27;100.00;99078.84;4872882;29;20044;-79
2024/01/03 07:48:16;;;;;;;43.67;32.88;;;;;;;0.25;100.00;99078.06;4873325;29;20041;-79
2024/01/03 07:50:42;;;;;;;40.67;30.95;;;;;;;0.23;100.00;99089.47;4872870;29;20029;-80
2024/01/03 07:53:07;;;;;;;43.80;31.33;;;;;;;0.22;100.00;99082.63;4869623;29;20045;-79
2024/01/03 07:55:33;;;;;;;40.45;30.88;;;;;;;0.27;100.00;99086.63;4872046;29;20045;-79
2024/01/03 07:57:59;;;;;;;39.42;30.30;;;;;;;0.35;100.00;99097.34;4866384;29;20041;-79
2024/01/03 08:00:24;;;;;;;43.67;31.40;;;;;;;0.57;100.00;99093.50;4875371;29;20032;-78
2024/01/03 08:02:49;;;;;;;41.13;30.48;;;;;;;0.57;100.00;99088.31;4871943;29;20025;-77
2024/01/03 08:05:15;;;;;;;39.38;30.55;;;;;;;0.64;100.00;99094.81;4872747;29;20037;-76
2024/01/03 08:07:40;;;;;;;41.22;30.38;;;;;;;0.74;100.00;99095.94;4869166;29;20068;-78
2024/01/03 08:10:07;;;;;;;41.63;29.85;;;;;;;0.56;100.00;99097.03;4868202;29;20045;-78
2024/01/03 08:12:33;;;;;;;38.45;29.88;;;;;;;0.73;100.00;99104.66;4875655;29;20212;-78
2024/01/03 08:14:58;;;;;;;38.30;29.08;;;;;;;0.82;100.00;99104.09;4874872;29;20095;-77
2024/01/03 08:17:24;;;;;;;36.72;29.00;;;;;;;0.85;100.00;99114.28;4867314;29;20574;-78
2024/01/03 08:19:50;;;;;;;36.78;28.92;;;;;;;0.92;100.00;99110.41;4870849;29;20037;-77
2024/01/03 08:22:16;;;;;;;35.03;28.20;;;;;;;0.92;100.00;99094.81;4869099;29;20104;-77
2024/01/03 08:24:42;;;;;;;35.38;28.05;;;;;;;0.96;100.00;99106.69;4869058;29;20033;-78
2024/01/03 08:27:07;;;;;;;37.60;28.98;;;;;;;0.96;100.00;99116.22;4871342;29;20059;-77
2024/01/03 08:29:34;;;;;;;40.53;29.23;;;;;;;0.90;100.00;99117.44;4868122;29;20404;-77
2024/01/03 08:31:59;;;;;;;37.92;29.00;;;;;;;0.81;100.00;99120.63;4868877;29;20402;-79
2024/01/03 08:34:25;;;;;;;38.00;28.33;;;;;;;0.92;100.00;99125.16;4866811;29;20041;-78
2024/01/03 08:36:51;;;;;;;35.15;26.83;;;;;;;1.00;100.00;99128.13;4872286;29;20478;-77
2024/01/03 08:39:16;;;;;;;38.17;28.63;;;;;;;1.07;100.00;99130.25;4872758;29;20095;-78
2024/01/03 08:41:42;;;;;;;42.10;30.65;;;;;;;1.08;100.00;99126.72;4876689;29;20045;-78
2024/01/03 08:44:08;;;;;;;35.15;27.52;;;;;;;1.10;100.00;99124.88;4879745;29;20044;-81
2024/01/03 08:46:40;;;;;;;42.03;28.15;;;;;;;1.13;100.00;99129.88;4870420;29;20880;-77
2024/01/03 08:49:06;;;;;;;36.65;27.92;;;;;;;1.14;100.00;99128.94;4874341;29;20044;-78
2024/01/03 08:51:32;;;;;;;42.05;29.23;;;;;;;1.12;100.00;99138.59;4870974;29;20029;-77
2024/01/03 08:53:58;;;;;;;37.38;28.27;;;;;;;1.13;100.00;99145.47;4874186;29;20510;-78
2024/01/03 08:56:23;;;;;;;40.72;28.52;;;;;;;1.03;100.00;99152.16;4870953;29;20081;-78
2024/01/03 08:58:49;;;;;;;41.45;29.40;;;;;;;1.11;100.00;99147.34;4873588;29;20068;-79
2024/01/03 09:01:20;;;;;;;35.92;28.67;;;;;;;1.22;100.00;99144.91;4874592;29;20041;-76
2024/01/03 09:03:46;;;;;;;43.30;29.88;;;;;;;1.32;100.00;99154.72;4876621;29;20415;-78
2024/01/03 09:06:13;;;;;;;37.03;28.10;;;;;;;1.46;100.00;99165.13;4871147;29;20120;-79
2024/01/03 09:08:39;;;;;;;34.72;28.40;;;;;;;1.51;100.00;99155.28;4874389;29;20068;-78
2024/01/03 09:11:15;;;;;;;39.53;28.05;;;;;;;1.55;100.00;99162.78;4943578;23;20016;-71
2024/01/03 09:13:41;;;;;;;39.67;28.27;;;;;;;1.51;100.00;99157.88;4906312;29;20426;-74
2024/01/03 09:16:07;;;;;;;37.65;28.13;;;;;;;1.57;100.00;99160.09;4910997;29;20066;-73
2024/01/03 09:18:33;;;;;;;42.13;27.95;;;;;;;1.70;100.00;99150.59;4907537;29;20107;-73
2024/01/03 09:21:02;;;;;;;39.65;28.48;;;;;;;1.77;100.00;99157.03;4912673;29;20143;-75
2024/01/03 09:23:27;;;;;;;37.35;27.92;;;;;;;1.78;100.00;99153.53;4909240;29;20486;-72
2024/01/03 09:25:55;;;;;;;36.55;28.58;;;;;;;1.52;100.00;99159.53;4910216;29;20036;-72
2024/01/03 09:28:21;;;;;;;40.42;29.52;;;;;;;1.73;100.00;99155.59;4910976;29;20703;-73
2024/01/03 09:30:47;;;;;;;42.72;29.98;;;;;;;1.81;100.00;99147.31;4912175;29;20032;-72
2024/01/03 09:33:12;;;;;;;37.67;28.27;;;;;;;1.96;100.00;99149.75;4912324;29;20392;-72
2024/01/03 09:35:38;;;;;;;43.33;29.00;;;;;;;2.09;100.00;99161.97;4907980;29;20039;-71
2024/01/03 09:38:04;;;;;;;44.92;29.08;;;;;;;2.04;100.00;99160.50;4908738;29;20032;-73
2024/01/03 09:40:31;;;;;;;37.03;28.00;;;;;;;2.22;100.00;99152.44;4909527;29;20051;-72
2024/01/03 09:42:57;;;;;;;39.17;28.02;;;;;;;2.42;100.00;99154.53;4907860;29;20020;-72
2024/01/03 09:45:23;;;;;;;38.67;27.55;;;;;;;2.37;100.00;99156.63;4910731;29;20036;-73
2024/01/03 09:47:48;;;;;;;42.70;28.67;;;;;;;2.49;100.00;99155.81;4908236;29;20036;-73
2024/01/03 09:50:14;;;;;;;39.28;27.50;;;;;;;2.42;100.00;99154.53;4910646;29;20508;-73
2024/01/03 09:52:41;;;;;;;39.55;28.35;;;;;;;2.59;100.00;99156.91;4907035;29;20120;-74
2024/01/03 09:55:09;;;;;;;35.15;27.23;;;;;;;2.40;100.00;99152.06;4912386;29;20082;-73
2024/01/03 09:57:35;;;;;;;35.75;27.80;;;;;;;2.59;100.00;99151.69;4907858;29;20120;-74
2024/01/03 10:00:00;;;;;;;38.20;27.17;;;;;;;2.73;100.00;99148.97;4910700;29;20119;-72
2024/01/03 10:02:27;;;;;;;35.78;26.48;;;;;;;2.72;100.00;99149.06;4912238;29;20080;-70
2024/01/03 10:04:53;;;;;;;40.17;28.88;;;;;;;2.94;100.00;99156.28;4909426;29;20028;-72
2024/01/03 10:07:30;;;;;;;40.95;28.30;;;;;;;3.12;100.00;99160.25;4909113;29;20052;-73
2024/01/03 10:09:56;;;;;;;41.05;30.10;;;;;;;3.20;100.00;99163.97;4910403;29;20037;-70
2024/01/03 10:12:21;;;;;;;41.03;29.05;;;;;;;2.97;100.00;99150.84;4911172;29;20482;-72
2024/01/03 10:14:47;;;;;;;40.95;28.83;;;;;;;3.14;100.00;99158.34;4910825;29;20039;-73
2024/01/03 10:17:13;;;;;;;37.80;27.25;;;;;;;3.29;100.00;99139.03;4915083;29;20047;-73
2024/01/03 10:19:39;;;;;;;37.42;26.60;;;;;;;3.33;100.00;99145.69;4907962;29;20024;-72
2024/01/03 10:22:04;;;;;;;38.92;26.40;;;;;;;3.33;100.00;99137.88;4914088;29;20474;-72
2024/01/03 10:24:31;;;;;;;42.42;27.92;;;;;;;3.31;100.00;99134.53;4910120;29;20032;-74
2024/01/03 10:27:08;;;;;;;40.33;28.52;;;;;;;3.34;100.00;99131.72;4911297;29;20363;-75
2024/01/03 10:29:34;;;;;;;38.00;27.52;;;;;;;3.35;100.00;99130.78;4912269;29;20039;-75
2024/01/03 10:32:00;;;;;;;42.67;28.48;;;;;;;3.51;100.00;99130.53;4910283;29;20078;-73
2024/01/03 10:34:25;;;;;;;39.88;27.13;;;;;;;3.64;100.00;99132.16;4909217;29;20064;-73
2024/01/03 10:36:52;;;;;;;38.60;26.95;;;;;;;3.81;100.00;99137.94;4907822;29;20103;-73
2024/01/03 10:39:19;;;;;;;39.60;28.23;;;;;;;3.78;100.00;99138.16;4909735;29;20040;-74
2024/01/03 10:41:49;;;;;;;38.88;26.40;;;;;;;3.94;100.00;99133.50;4906708;29;20099;-73
2024/01/03 10:44:17;;;;;;;39.22;27.48;;;;;;;3.98;100.00;99140.16;4910172;29;20731;-73
2024/01/03 10:46:47;;;;;;;37.72;25.55;;;;;;;3.92;100.00;99132.78;4909741;29;20083;-72
2024/01/03 10:49:13;;;;;;;38.33;26.02;;;;;;;4.04;100.00;99134.50;4912508;29;20044;-73
2024/01/03 10:51:40;;;;;;;40.83;26.77;;;;;;;4.15;100.00;99131.94;4905915;29;20060;-73
2024/01/03 10:54:11;;;;;;;35.05;26.80;;;;;;;4.19;100.00;99141.19;4909835;29;20040;-74
2024/01/03 10:56:37;;;;;;;37.45;26.45;;;;;;;4.36;100.00;99130.34;4909175;29;20115;-73
2024/01/03 10:59:05;;;;;;;38.42;27.55;;;;;;;4.24;100.00;99126.03;4910045;29;20123;-73
2024/01/03 11:02:05;;;;;;;37.67;25.25;;;;;;;4.44;100.00;99114.94;4909225;29;20036;-72
2024/01/03 11:04:33;;;;;;;;;;;;;;;4.32;100.00;99108.00;4908468;29;20059;-74
2024/01/03 11:07:05;;;;;;;38.63;27.52;;;;;;;4.39;100.00;99104.00;4912538;29;19926;-74
2024/01/03 11:09:31;;;;;;;39.25;27.67;;;;;;;4.56;100.00;99104.50;4907553;29;20460;-74
2024/01/03 11:12:09;;;;;;;40.38;28.70;;;;;;;4.49;100.00;99099.75;4907611;29;20067;-74